LGKFLGZA

Guest
Details From LGKF - Kefallinia
To LGZA - Zakinthos Dionysios Solomos
Flight Number -
Tags Routegen Generated
Created
Modified
Stats Distance 28 nm / 52 km
Max Altitude 100 ft / 30 m
Waypoints 5
Social Downloads 3
Likes 0
Share

Download

Looking for another format? Having issues loading an existing format? Contact us
Advertisement - Login to hide

Notes

Departing runway 14 LGKF. Arriving runway 16 LGZA.

Route

LGKF +38.05_+020.56 +37.94_+020.71 +37.83_+020.85 LGZA

ID Type Via Altitude (ft/m) Position (lat/lon) Dist (leg/tot) Name
O LGKF APT - 0 / 0 38.11096 / 20.50817 - / 0 nm
+38.05_+020.56 LATLON - 100 / 30 38.05068 / 20.55903 4 / 4 nm
+37.94_+020.71 LATLON - 100 / 30 37.94028 / 20.70682 9 / 13 nm
+37.83_+020.85 LATLON - 100 / 30 37.82988 / 20.85460 9 / 23 nm
O LGZA APT - 0 / 0 37.76048 / 20.88054 4 / 27 nm

Altitude Profile

Advertisement - Login to hide

LGKF

Details ICAO LGKF (EFL)
Name Kefallinia
Region Greece
Timezone Europe/Athens (UTC+3.0)
Stats Elevation 59 ft / 18 m (AMSL)
Location 38.120200° 20.500400°
Runways 1
Magnetic Variation 4.323° E

METAR

LGKF 210950Z 16005KT 9999 FEW016 26/19 Q1017

Decode

TAF

Not found

Departure Runways

ID Width Length Bearing (true/mag) Surface Threshold Overrun Markings Lighting
14 148 ft / 45 m 8,039 ft / 2,450 m 146.44° / 142.11° CONCRETE 89 ft / 27 m 0 ft / 0 m PREC-APP CENTERLINE EDGE THRESHOLD MALSF
32 148 ft / 45 m 8,039 ft / 2,450 m 326.44° / 322.12° CONCRETE 853 ft / 260 m 0 ft / 0 m PREC-APP CENTERLINE EDGE THRESHOLD MALSF

LGZA

Details ICAO LGZA (ZTH)
Name Zakynthos Dionysios Solomos
Region Greece
Timezone Europe/Athens (UTC+3.0)
Stats Elevation 14 ft / 4 m (AMSL)
Location 37.751100° 20.884200°
Runways 1
Magnetic Variation 4.342° E

METAR

LGZA 210950Z 36006KT CAVOK 26/15 Q1017

Decode

TAF

Not found

Destination Runways

ID Width Length Bearing (true/mag) Surface Threshold Overrun Markings Lighting
16 148 ft / 45 m 7,338 ft / 2,237 m 163.54° / 159.20° ASPHALT 650 ft / 198 m 207 ft / 63 m PREC-APP EDGE THRESHOLD REIL-OMNI
34 148 ft / 45 m 7,338 ft / 2,237 m 343.55° / 339.20° ASPHALT 676 ft / 206 m 318 ft / 97 m PREC-APP EDGE THRESHOLD

Popular Alternatives